»·PEaware :: AWE940 KDFW-KPHX

AWE940 :: KDFW-KPHX

FLIGHT INFORMATION

Flight Status: Arrived
Operator:
US Airways
More flights by this operator :: More flights under this callsign
Pilot: Nick A. (87)
Aircraft: BOEING 737-300
(B733)
More flights by this aircraft type
Origin: KDFW Dallas-Ft Worth Intl
United States
Destination: KPHX Phoenix Sky Harbor Intl
United States
More flights between these airports :: More routes between these airports
Route: PODDE3 ABI J66 EWM J4 SSO KOOLY3
File this flight plan on PilotEdge
Remarks:
Altitude:
(Current/Filed)
32,000ft
Speed:
(Current/Filed)
460kts
Departed: 22-Mar-11 09:03 AM
Arrived: 22-Mar-11 11:03 AM
Distance/Time
Traveled:
752nm/2:00
Distance/Time
To Go:
Arrived

Flight Plot

Page will automatically refresh every two minutes.


Map Options




Map Legend


Flown Route
Filed Route
Departure Airport
Arrival Airport
Navaid (VOR, NDB)
Fix

Horizontal Profiles

Position Reports

Time Latitude Longitude Heading Altitude Ground
Speed
22-Mar-11 08:52 32.903864 -97.045528 73 613ft 0kts
22-Mar-11 08:53 32.903864 -97.045528 73 613ft 0kts
22-Mar-11 08:54 32.903864 -97.045528 73 613ft 0kts
22-Mar-11 08:55 32.903864 -97.045528 73 613ft 0kts
22-Mar-11 08:56 32.903864 -97.045528 73 613ft 0kts
22-Mar-11 08:57 32.903864 -97.045528 73 613ft 0kts
22-Mar-11 08:58 32.904098 -97.045457 2 613ft 4kts
22-Mar-11 08:59 32.905851 -97.046309 309 613ft 9kts
22-Mar-11 09:01 32.915310 -97.050264 258 613ft 16kts
22-Mar-11 09:02 32.896937 -97.051148 186 835ft 123kts
22-Mar-11 09:03 32.844059 -97.055423 180 3687ft 238kts
22-Mar-11 09:04 32.777413 -97.054914 179 6633ft 232kts
22-Mar-11 09:05 32.712142 -97.065175 222 9535ft 261kts
22-Mar-11 09:06 32.691177 -97.153826 271 12457ft 326kts
22-Mar-11 09:07 32.697638 -97.249724 268 14898ft 362kts
22-Mar-11 09:08 32.704973 -97.369850 267 17836ft 378kts
22-Mar-11 09:09 32.712521 -97.496202 266 20809ft 394kts
22-Mar-11 09:10 32.720153 -97.626189 265 23747ft 409kts
22-Mar-11 09:11 32.726619 -97.762814 259 26715ft 421kts
22-Mar-11 09:12 32.726336 -97.907513 260 29702ft 462kts
22-Mar-11 09:13 32.718522 -98.060099 252 31956ft 458kts
22-Mar-11 09:14 32.699857 -98.209736 253 31934ft 467kts
22-Mar-11 09:15 32.680751 -98.361878 255 31933ft 467kts
22-Mar-11 09:16 32.661401 -98.514365 255 31933ft 468kts
22-Mar-11 09:17 32.642570 -98.660278 255 31896ft 467kts
22-Mar-11 09:18 32.623252 -98.809460 254 31893ft 464kts
22-Mar-11 09:19 32.603641 -98.959492 254 31892ft 463kts
22-Mar-11 09:20 32.584140 -99.107295 254 31891ft 462kts
22-Mar-11 09:21 32.564201 -99.257025 253 31890ft 461kts
22-Mar-11 09:22 32.544174 -99.406033 253 31889ft 461kts
22-Mar-11 09:23 32.523869 -99.555704 253 31900ft 467kts
22-Mar-11 09:24 32.503405 -99.704050 253 31901ft 474kts
22-Mar-11 09:25 32.482090 -99.858356 253 31901ft 477kts
22-Mar-11 09:26 32.473302 -100.016791 257 31850ft 481kts
22-Mar-11 09:27 32.464743 -100.173867 255 31847ft 476kts
22-Mar-11 09:28 32.456088 -100.329370 254 31846ft 472kts
22-Mar-11 09:29 32.447305 -100.483810 254 31848ft 470kts
22-Mar-11 09:30 32.438309 -100.635505 254 31875ft 480kts
22-Mar-11 09:31 32.428931 -100.794026 255 31876ft 484kts
22-Mar-11 09:32 32.419356 -100.952288 255 31877ft 486kts
22-Mar-11 09:33 32.409640 -101.109478 256 31886ft 474kts
22-Mar-11 09:34 32.399890 -101.264167 256 31886ft 469kts
22-Mar-11 09:35 32.390123 -101.416193 257 31885ft 466kts
22-Mar-11 09:36 32.379574 -101.569702 257 31916ft 471kts
22-Mar-11 09:37 32.368558 -101.719573 256 31917ft 473kts
22-Mar-11 09:38 32.357389 -101.871024 257 31935ft 475kts
22-Mar-11 09:39 32.345715 -102.026835 257 31936ft 476kts
22-Mar-11 09:40 32.333853 -102.182562 257 31936ft 476kts
22-Mar-11 09:41 32.321928 -102.336604 257 31935ft 476kts
22-Mar-11 09:42 32.309701 -102.491713 258 31933ft 473kts
22-Mar-11 09:43 32.297533 -102.642208 259 31933ft 472kts
22-Mar-11 09:44 32.285012 -102.796711 259 31932ft 471kts
22-Mar-11 09:45 32.272618 -102.947161 260 31949ft 454kts
22-Mar-11 09:46 32.260471 -103.092598 261 31947ft 446kts
22-Mar-11 09:47 32.248167 -103.237946 262 31944ft 442kts
22-Mar-11 09:48 32.235712 -103.383288 261 31945ft 451kts
22-Mar-11 09:49 32.222743 -103.532151 261 31946ft 461kts
22-Mar-11 09:50 32.209541 -103.680013 260 31951ft 465kts
22-Mar-11 09:51 32.196184 -103.829396 260 31919ft 451kts
22-Mar-11 09:52 32.183151 -103.973133 260 31917ft 438kts
22-Mar-11 09:53 32.170164 -104.114680 261 31914ft 431kts
22-Mar-11 09:54 32.157187 -104.254409 261 31911ft 427kts
22-Mar-11 09:55 32.144145 -104.393161 261 31909ft 425kts
22-Mar-11 09:56 32.130985 -104.531513 262 31906ft 424kts
22-Mar-11 09:57 32.117961 -104.665263 261 31918ft 423kts
22-Mar-11 09:58 32.104601 -104.802559 261 31916ft 423kts
22-Mar-11 09:59 32.091014 -104.940596 261 31914ft 423kts
22-Mar-11 10:01 32.063784 -105.212786 260 31939ft 414kts
22-Mar-11 10:02 32.050120 -105.347056 259 31936ft 412kts
22-Mar-11 10:03 32.036345 -105.480705 260 32075ft 418kts
22-Mar-11 10:04 32.022477 -105.612793 261 32087ft 428kts
22-Mar-11 10:05 32.007866 -105.752102 261 32087ft 435kts
22-Mar-11 10:06 31.992962 -105.892522 261 32046ft 435kts
22-Mar-11 10:07 31.977783 -106.034092 262 32044ft 435kts
22-Mar-11 10:08 31.962514 -106.174981 262 32042ft 434kts
22-Mar-11 10:09 31.957102 -106.315642 276 32044ft 437kts
22-Mar-11 10:10 31.973595 -106.457009 276 32039ft 436kts
22-Mar-11 10:11 31.989300 -106.592475 275 32045ft 436kts
22-Mar-11 10:12 32.005311 -106.732148 275 32047ft 436kts
22-Mar-11 10:13 32.021443 -106.873480 275 32046ft 436kts
22-Mar-11 10:14 32.037398 -107.014684 275 32044ft 436kts
22-Mar-11 10:15 32.053087 -107.155001 276 32091ft 431kts
22-Mar-11 10:16 32.068261 -107.292121 276 32098ft 418kts
22-Mar-11 10:17 32.082946 -107.426047 277 32095ft 413kts
22-Mar-11 10:18 32.097300 -107.558309 277 32077ft 410kts
22-Mar-11 10:19 32.110956 -107.686805 278 32086ft 412kts
22-Mar-11 10:20 32.125177 -107.820372 278 32084ft 413kts
22-Mar-11 10:21 32.139262 -107.954087 278 32082ft 414kts
22-Mar-11 10:22 32.153321 -108.088896 278 32080ft 414kts
22-Mar-11 10:23 32.167187 -108.223297 279 32078ft 414kts
22-Mar-11 10:24 32.180880 -108.357511 279 32112ft 415kts
22-Mar-11 10:25 32.194591 -108.493488 281 32135ft 418kts
22-Mar-11 10:26 32.207615 -108.625288 281 32145ft 422kts
22-Mar-11 10:27 32.221207 -108.762755 282 32144ft 424kts
22-Mar-11 10:28 32.234730 -108.901130 282 32142ft 425kts
22-Mar-11 10:29 32.248119 -109.039777 282 32140ft 425kts
22-Mar-11 10:30 32.261460 -109.179481 282 32140ft 432kts
22-Mar-11 10:31 32.277468 -109.296019 293 31870ft 428kts
22-Mar-11 10:32 32.316046 -109.454088 291 30852ft 420kts
22-Mar-11 10:33 32.341926 -109.560463 291 30109ft 403kts
22-Mar-11 10:34 32.371298 -109.682482 291 29299ft 399kts
22-Mar-11 10:35 32.401338 -109.807159 291 28453ft 393kts
22-Mar-11 10:36 32.430868 -109.930301 291 27596ft 387kts
22-Mar-11 10:37 32.459884 -110.051873 291 26730ft 381kts
22-Mar-11 10:38 32.488229 -110.171180 291 25860ft 375kts
22-Mar-11 10:39 32.516045 -110.288798 291 24981ft 369kts
22-Mar-11 10:40 32.542913 -110.402994 291 24165ft 354kts
22-Mar-11 10:41 32.568918 -110.513844 292 24135ft 350kts
22-Mar-11 10:42 32.601501 -110.617592 299 23492ft 378kts
22-Mar-11 10:43 32.658378 -110.722459 299 21672ft 400kts
22-Mar-11 10:44 32.718109 -110.832884 301 19755ft 392kts
22-Mar-11 10:45 32.774891 -110.938302 302 17901ft 375kts
22-Mar-11 10:46 32.829690 -111.043749 302 16281ft 364kts
22-Mar-11 10:47 32.882260 -111.144179 305 14879ft 354kts
22-Mar-11 10:48 32.935533 -111.238352 303 13687ft 331kts
22-Mar-11 10:49 32.983586 -111.324022 303 12465ft 295kts
22-Mar-11 10:50 33.033987 -111.398478 326 11576ft 293kts
22-Mar-11 10:51 33.099329 -111.454594 323 10270ft 288kts
22-Mar-11 10:52 33.163638 -111.510380 323 8977ft 289kts
22-Mar-11 10:53 33.227808 -111.566112 324 7686ft 285kts
22-Mar-11 10:54 33.287950 -111.618655 324 6446ft 275kts
22-Mar-11 10:55 33.343193 -111.666216 326 5081ft 230kts
22-Mar-11 10:56 33.395515 -111.709065 326 4032ft 226kts
22-Mar-11 10:57 33.427095 -111.761653 274 3995ft 207kts
22-Mar-11 10:58 33.428541 -111.829481 269 3848ft 207kts
22-Mar-11 10:59 33.430692 -111.887881 278 3173ft 143kts
22-Mar-11 11:01 33.431060 -111.977910 268 1628ft 139kts
22-Mar-11 11:02 33.431293 -112.008688 319 1141ft 13kts
22-Mar-11 11:03 33.433421 -112.008176 279 1141ft 0kts

Navigation Log

Ident Type
1. KDFW Airport
2. PODDE Fix
3. MQP Navaid
4. ABI Navaid
5. BGS Navaid
6. EWM Navaid
7. SSO Navaid
8. ITEMM Fix
9. RECOK Fix
10. KOOLY Fix
11. SQUEZ Fix
12. SUNSS Fix
13. VNILA Fix
14. BASHA Fix
15. BRNDA Fix
16. NEELE Fix
17. KPHX Airport